Time;durP1;ratioP1;P1;durP2;ratioP2;P2;SDS_P1;SDS_P2;PMS_P1;PMS_P2;Temp;Humidity;BMP_temperature;BMP_pressure;BME280_temperature;BME280_humidity;BME280_pressure;Samples;Min_cycle;Max_cycle;Signal;HPM_P1;HPM_P2
2023/10/09 00:03:23;;;;;;;1.65;0.68;;;;;;;;;;9779606;28;20273;-75
2023/10/09 00:08:30;;;;;;;1.90;0.77;;;;;;;;;;9779084;28;20224;-75
2023/10/09 00:13:32;;;;;;;0.93;0.70;;;;;;;;;;9768131;28;20370;-76
2023/10/09 00:18:34;;;;;;;2.72;0.77;;;;;;;;;;9787081;28;20231;-75
2023/10/09 00:23:36;;;;;;;0.77;0.77;;;;;;;;;;9783164;28;22283;-75
2023/10/09 00:28:41;;;;;;;3.63;1.02;;;;;;;;;;9775679;28;20282;-74
2023/10/09 00:33:43;;;;;;;1.40;0.90;;;;;;;;;;9778125;28;20226;-75
2023/10/09 00:38:45;;;;;;;0.77;0.77;;;;;;;;;;9773719;28;22419;-73
2023/10/09 00:43:49;;;;;;;2.40;0.95;;;;;;;;;;9871677;28;20219;-76
2023/10/09 00:48:53;;;;;;;0.70;0.70;;;;;;;;;;10374433;28;20239;-76
2023/10/09 00:53:57;;;;;;;0.70;0.70;;;;;;;;;;10379326;28;20215;-75
2023/10/09 00:59:13;;;;;;;5.80;0.98;;;;;;;;;;10377476;28;20243;-76
2023/10/09 01:04:14;;;;;;;2.13;0.63;;;;;;;;;;10373231;28;20699;-78
2023/10/09 01:09:20;;;;;;;1.20;0.80;;;;;;;;;;10388077;28;20239;-77
2023/10/09 01:14:22;;;;;;;0.50;0.50;;;;;;;;;;10360768;28;20727;-77
2023/10/09 01:19:23;;;;;;;0.85;0.70;;;;;;;;;;10348484;28;20243;-76
2023/10/09 01:24:26;;;;;;;1.02;0.45;;;;;;;;;;10355332;28;20658;-76
2023/10/09 01:29:29;;;;;;;3.28;0.60;;;;;;;;;;10361566;28;20767;-76
2023/10/09 01:34:44;;;;;;;0.77;0.77;;;;;;;;;;10351711;28;20215;-77
2023/10/09 01:39:52;;;;;;;1.83;0.85;;;;;;;;;;10365264;28;20222;-77
2023/10/09 01:44:53;;;;;;;0.68;0.68;;;;;;;;;;10351290;28;20215;-76
2023/10/09 01:49:57;;;;;;;2.33;0.85;;;;;;;;;;10351970;28;20208;-76
2023/10/09 01:55:06;;;;;;;1.38;0.65;;;;;;;;;;10382719;28;20207;-77
2023/10/09 02:00:07;;;;;;;4.05;1.00;;;;;;;;;;10391468;28;20704;-77
2023/10/09 02:26:02;;;;;;;1.75;1.00;;;;;;;;;;10369750;28;20749;-76
2023/10/09 02:31:22;;;;;;;0.90;0.90;;;;;;;;;;10367381;28;20754;-76
2023/10/09 02:36:24;;;;;;;0.93;0.93;;;;;;;;;;10393772;28;20739;-76
2023/10/09 02:41:28;;;;;;;1.15;1.02;;;;;;;;;;10375935;28;20389;-75
2023/10/09 02:46:30;;;;;;;2.58;1.00;;;;;;;;;;10275530;28;21884;-74
2023/10/09 02:51:32;;;;;;;4.20;1.00;;;;;;;;;;9913819;28;20239;-74
2023/10/09 02:56:37;;;;;;;1.63;0.80;;;;;;;;;;9911725;28;21625;-74
2023/10/09 03:01:39;;;;;;;1.73;0.93;;;;;;;;;;9791319;28;20258;-74
2023/10/09 03:06:49;;;;;;;1.40;1.20;;;;;;;;;;9775214;28;21513;-73
2023/10/09 03:11:55;;;;;;;1.27;1.20;;;;;;;;;;9769961;28;20306;-74
2023/10/09 03:16:57;;;;;;;2.55;1.38;;;;;;;;;;9761311;28;22089;-74
2023/10/09 03:21:58;;;;;;;2.10;1.30;;;;;;;;;;9803590;28;20286;-76
2023/10/09 03:27:00;;;;;;;1.80;1.67;;;;;;;;;;9756787;28;21601;-73
2023/10/09 03:32:01;;;;;;;1.52;1.42;;;;;;;;;;9779080;28;21048;-74
2023/10/09 03:37:11;;;;;;;2.15;1.95;;;;;;;;;;9778497;28;21952;-74
2023/10/09 03:42:19;;;;;;;1.55;1.52;;;;;;;;;;9799400;28;21901;-76
2023/10/09 03:47:22;;;;;;;2.00;1.90;;;;;;;;;;9798733;28;20222;-74
2023/10/09 03:52:27;;;;;;;2.63;1.80;;;;;;;;;;9765330;28;20215;-74
2023/10/09 03:57:28;;;;;;;1.67;1.60;;;;;;;;;;9779709;28;20363;-74
2023/10/09 04:02:31;;;;;;;5.43;2.20;;;;;;;;;;9765108;28;21855;-75
2023/10/09 04:07:33;;;;;;;2.35;1.92;;;;;;;;;;9802992;28;22598;-74
2023/10/09 04:12:35;;;;;;;2.75;2.03;;;;;;;;;;9751107;28;20342;-74
2023/10/09 04:17:41;;;;;;;3.63;2.50;;;;;;;;;;9781230;28;20222;-74
2023/10/09 04:22:50;;;;;;;3.70;2.38;;;;;;;;;;9768299;28;20234;-74
2023/10/09 04:28:18;;;;;;;3.08;2.55;;;;;;;;;;9780318;28;22113;-74
2023/10/09 04:38:34;;;;;;;5.10;2.88;;;;;;;;;;9793256;28;20231;-74
2023/10/09 04:43:35;;;;;;;5.95;3.58;;;;;;;;;;10324759;28;20207;-76
2023/10/09 04:48:39;;;;;;;3.72;3.40;;;;;;;;;;10375562;28;20210;-75
2023/10/09 04:53:50;;;;;;;3.80;3.10;;;;;;;;;;10389492;28;20218;-75
2023/10/09 04:59:03;;;;;;;4.05;3.35;;;;;;;;;;10370547;28;20269;-75
2023/10/09 05:04:26;;;;;;;4.93;3.72;;;;;;;;;;10346645;28;20698;-76
2023/10/09 05:09:27;;;;;;;5.65;3.17;;;;;;;;;;10351835;28;20223;-75
2023/10/09 05:14:38;;;;;;;4.50;4.20;;;;;;;;;;10356873;28;20211;-75
2023/10/09 05:19:54;;;;;;;4.72;3.58;;;;;;;;;;10369086;28;20249;-76
2023/10/09 05:24:56;;;;;;;4.53;3.75;;;;;;;;;;10371011;28;20227;-75
2023/10/09 05:30:12;;;;;;;4.10;3.70;;;;;;;;;;10360678;28;20215;-77
2023/10/09 05:35:17;;;;;;;6.40;3.75;;;;;;;;;;10370116;28;20217;-75
2023/10/09 05:51:10;;;;;;;3.45;3.25;;;;;;;;;;10386983;28;20568;-77
2023/10/09 06:06:44;;;;;;;7.00;4.22;;;;;;;;;;10360549;28;20226;-77
2023/10/09 06:11:49;;;;;;;4.63;4.13;;;;;;;;;;10364013;28;20230;-77
2023/10/09 06:42:34;;;;;;;4.38;3.45;;;;;;;;;;10366727;28;20363;-77
2023/10/09 06:47:41;;;;;;;7.45;4.30;;;;;;;;;;10371288;28;20243;-77
2023/10/09 06:52:58;;;;;;;5.10;4.68;;;;;;;;;;10335605;28;20211;-75
2023/10/09 06:58:01;;;;;;;4.68;3.90;;;;;;;;;;9736732;28;20311;-74
2023/10/09 07:03:11;;;;;;;4.50;4.10;;;;;;;;;;9735378;28;20219;-75
2023/10/09 07:08:31;;;;;;;4.10;3.90;;;;;;;;;;9739720;28;20223;-74
2023/10/09 07:13:36;;;;;;;4.18;3.67;;;;;;;;;;9788923;28;22303;-73
2023/10/09 07:18:49;;;;;;;4.80;4.40;;;;;;;;;;9778501;28;22323;-73
2023/10/09 07:23:55;;;;;;;4.30;4.05;;;;;;;;;;9745317;28;20340;-74
2023/10/09 07:29:16;;;;;;;5.07;4.55;;;;;;;;;;9737228;28;20309;-73
2023/10/09 07:34:52;;;;;;;4.38;3.40;;;;;;;;;;9763952;28;20218;-74
2023/10/09 07:40:01;;;;;;;4.68;4.07;;;;;;;;;;9764636;28;20219;-76
2023/10/09 07:50:22;;;;;;;5.40;4.07;;;;;;;;;;9758867;28;20835;-75
2023/10/09 07:55:26;;;;;;;4.25;3.85;;;;;;;;;;9772201;28;20265;-75
2023/10/09 08:00:36;;;;;;;4.97;4.53;;;;;;;;;;9748751;28;20258;-75
2023/10/09 08:05:44;;;;;;;6.93;4.47;;;;;;;;;;9742303;28;20314;-74
2023/10/09 08:16:16;;;;;;;4.20;3.90;;;;;;;;;;9779274;28;20215;-75
2023/10/09 08:21:41;;;;;;;9.48;3.63;;;;;;;;;;9793460;28;20308;-74
2023/10/09 08:26:50;;;;;;;4.25;3.95;;;;;;;;;;9791470;28;20237;-74
2023/10/09 08:31:56;;;;;;;4.70;4.38;;;;;;;;;;9820165;28;22323;-73
2023/10/09 08:36:58;;;;;;;4.65;4.30;;;;;;;;;;10009688;28;20890;-75
2023/10/09 08:42:01;;;;;;;6.90;4.28;;;;;;;;;;10378220;28;20720;-78
2023/10/09 08:47:02;;;;;;;3.75;3.45;;;;;;;;;;10365222;28;20208;-77
2023/10/09 08:52:04;;;;;;;4.07;3.78;;;;;;;;;;10381721;28;20258;-76
2023/10/09 08:57:09;;;;;;;3.95;3.63;;;;;;;;;;10351812;28;20234;-75
2023/10/09 09:02:11;;;;;;;4.15;3.80;;;;;;;;;;10369158;28;20212;-76
2023/10/09 09:07:33;;;;;;;3.22;2.92;;;;;;;;;;10349403;28;20215;-76
2023/10/09 09:12:40;;;;;;;4.05;3.75;;;;;;;;;;10358497;28;20227;-76
2023/10/09 09:17:42;;;;;;;3.28;3.08;;;;;;;;;;10364449;28;20615;-75
2023/10/09 09:22:56;;;;;;;4.28;3.97;;;;;;;;;;10355887;28;20235;-75
2023/10/09 09:28:05;;;;;;;3.67;3.38;;;;;;;;;;10352771;28;20635;-75
2023/10/09 09:33:26;;;;;;;3.95;3.65;;;;;;;;;;10309373;28;20212;-76
2023/10/09 09:38:27;;;;;;;3.00;2.83;;;;;;;;;;10330297;28;20238;-75
2023/10/09 09:43:30;;;;;;;3.72;3.45;;;;;;;;;;10339327;28;20246;-76
2023/10/09 09:48:32;;;;;;;3.40;3.20;;;;;;;;;;10338607;28;20212;-76
2023/10/09 09:53:34;;;;;;;3.40;3.20;;;;;;;;;;10309374;28;20232;-75
2023/10/09 09:58:45;;;;;;;3.72;3.42;;;;;;;;;;10308427;28;20223;-76
2023/10/09 10:03:50;;;;;;;3.22;3.03;;;;;;;;;;10308740;28;20227;-76
2023/10/09 10:08:51;;;;;;;3.28;3.08;;;;;;;;;;10339002;28;20247;-76
2023/10/09 10:13:55;;;;;;;3.88;3.58;;;;;;;;;;10307202;28;20223;-77
2023/10/09 10:18:59;;;;;;;3.33;3.13;;;;;;;;;;10332190;28;20212;-76
2023/10/09 10:24:09;;;;;;;4.05;3.35;;;;;;;;;;10353581;28;20216;-77
2023/10/09 10:29:23;;;;;;;4.45;3.30;;;;;;;;;;10362122;28;20219;-75
2023/10/09 10:34:25;;;;;;;3.50;3.20;;;;;;;;;;10365949;28;20298;-77
2023/10/09 10:39:45;;;;;;;3.53;3.30;;;;;;;;;;9916767;28;21088;-74
2023/10/09 10:44:53;;;;;;;3.45;3.25;;;;;;;;;;9764947;28;21096;-73
2023/10/09 10:49:58;;;;;;;3.42;3.08;;;;;;;;;;9760887;28;20805;-73
2023/10/09 10:55:48;;;;;;;2.83;2.70;;;;;;;;;;9738144;28;20762;-73
2023/10/09 11:06:15;;;;;;;2.67;2.58;;;;;;;;;;9749327;28;20993;-74
2023/10/09 11:11:16;;;;;;;2.40;2.30;;;;;;;;;;9766445;28;21823;-75
2023/10/09 11:21:40;;;;;;;3.20;2.80;;;;;;;;;;9752889;28;20974;-75
2023/10/09 11:26:41;;;;;;;2.30;2.20;;;;;;;;;;9764765;28;21139;-76
2023/10/09 11:32:07;;;;;;;2.83;2.55;;;;;;;;;;9735553;28;20750;-75
2023/10/09 11:37:11;;;;;;;2.78;2.67;;;;;;;;;;9731657;28;20739;-73
2023/10/09 11:42:30;;;;;;;2.42;2.33;;;;;;;;;;9755048;28;21437;-74
2023/10/09 11:47:45;;;;;;;3.13;2.65;;;;;;;;;;9735779;28;21331;-74
2023/10/09 11:53:08;;;;;;;3.13;2.92;;;;;;;;;;9770998;28;21647;-74
2023/10/09 11:58:09;;;;;;;2.92;2.72;;;;;;;;;;9732623;28;21862;-73
2023/10/09 12:03:11;;;;;;;2.92;2.83;;;;;;;;;;9746527;28;21274;-73
2023/10/09 12:08:15;;;;;;;3.00;2.80;;;;;;;;;;9744931;28;21171;-74
2023/10/09 12:13:16;;;;;;;2.28;2.17;;;;;;;;;;9736477;28;20844;-74
2023/10/09 12:18:18;;;;;;;2.53;2.42;;;;;;;;;;9742647;28;21570;-74
2023/10/09 12:23:20;;;;;;;2.60;2.50;;;;;;;;;;9739455;28;21340;-74
2023/10/09 12:28:21;;;;;;;2.28;2.17;;;;;;;;;;9733647;28;21137;-73
2023/10/09 12:33:29;;;;;;;2.58;2.42;;;;;;;;;;10051303;28;20219;-75
2023/10/09 12:38:33;;;;;;;4.25;2.20;;;;;;;;;;10390145;28;20621;-75
2023/10/09 12:43:37;;;;;;;2.72;2.63;;;;;;;;;;10378064;28;20726;-76
2023/10/09 12:48:45;;;;;;;3.08;2.88;;;;;;;;;;10364403;28;20207;-76
2023/10/09 12:53:54;;;;;;;3.40;3.13;;;;;;;;;;10372741;28;20252;-77
2023/10/09 12:58:56;;;;;;;3.72;3.42;;;;;;;;;;10393099;28;20305;-76
2023/10/09 13:03:59;;;;;;;3.58;3.38;;;;;;;;;;10382362;28;20230;-77
2023/10/09 13:09:06;;;;;;;4.20;3.80;;;;;;;;;;10351622;28;20222;-77
2023/10/09 13:14:16;;;;;;;6.28;4.47;;;;;;;;;;10364388;28;20726;-75
2023/10/09 13:19:17;;;;;;;3.85;3.55;;;;;;;;;;10386447;28;20226;-76
2023/10/09 13:24:24;;;;;;;3.35;3.15;;;;;;;;;;10375705;28;20224;-76
2023/10/09 13:29:25;;;;;;;4.30;3.40;;;;;;;;;;10363648;28;20230;-75
2023/10/09 13:34:28;;;;;;;3.65;3.28;;;;;;;;;;10335464;28;20239;-77
2023/10/09 13:39:38;;;;;;;4.10;3.75;;;;;;;;;;10385868;28;20772;-77
2023/10/09 13:44:41;;;;;;;5.28;4.78;;;;;;;;;;10370544;28;20215;-76
2023/10/09 13:49:44;;;;;;;5.00;4.60;;;;;;;;;;10391467;28;20315;-76
2023/10/09 13:54:49;;;;;;;4.43;4.13;;;;;;;;;;10376166;28;20224;-76
2023/10/09 13:59:50;;;;;;;6.38;4.32;;;;;;;;;;10358667;28;20573;-76
2023/10/09 14:04:52;;;;;;;3.95;3.65;;;;;;;;;;10371393;28;20246;-78
2023/10/09 14:10:06;;;;;;;5.68;5.05;;;;;;;;;;10370243;28;20211;-76
2023/10/09 14:15:10;;;;;;;13.15;8.45;;;;;;;;;;10371203;28;21353;-76
2023/10/09 14:20:31;;;;;;;19.08;8.82;;;;;;;;;;10347419;28;20212;-77
2023/10/09 14:25:43;;;;;;;12.70;6.80;;;;;;;;;;10389755;28;20323;-76
2023/10/09 14:30:48;;;;;;;6.20;5.55;;;;;;;;;;10358288;28;20223;-76
2023/10/09 14:35:52;;;;;;;6.20;5.60;;;;;;;;;;10371619;28;20211;-77
2023/10/09 14:40:57;;;;;;;10.95;8.73;;;;;;;;;;10185783;28;20455;-75
2023/10/09 14:45:58;;;;;;;8.60;6.10;;;;;;;;;;9919533;28;20795;-76
2023/10/09 14:51:04;;;;;;;8.18;5.90;;;;;;;;;;9924532;28;22452;-75
2023/10/09 14:56:08;;;;;;;6.55;5.88;;;;;;;;;;9966415;28;20911;-76
2023/10/09 15:01:15;;;;;;;13.60;8.18;;;;;;;;;;9990857;28;20227;-75
2023/10/09 15:06:17;;;;;;;15.20;10.57;;;;;;;;;;9992510;28;22216;-75
2023/10/09 15:11:23;;;;;;;12.63;8.60;;;;;;;;;;10035737;28;21219;-75
2023/10/09 15:16:26;;;;;;;8.75;7.50;;;;;;;;;;10007641;28;20219;-75
2023/10/09 15:21:28;;;;;;;7.63;6.15;;;;;;;;;;10010504;28;22124;-76
2023/10/09 15:26:32;;;;;;;7.28;5.60;;;;;;;;;;10035334;28;20418;-75
2023/10/09 15:31:34;;;;;;;6.10;5.45;;;;;;;;;;9944900;28;20663;-75
2023/10/09 15:36:36;;;;;;;3.92;3.63;;;;;;;;;;9969627;28;21084;-75
2023/10/09 15:41:39;;;;;;;4.65;4.20;;;;;;;;;;9988692;28;20714;-76
2023/10/09 15:46:43;;;;;;;5.25;4.95;;;;;;;;;;9938591;28;20889;-76
2023/10/09 15:51:47;;;;;;;5.85;5.20;;;;;;;;;;9947887;28;20262;-76
2023/10/09 15:56:48;;;;;;;7.22;5.82;;;;;;;;;;9967862;28;21676;-76
2023/10/09 16:01:51;;;;;;;6.05;5.57;;;;;;;;;;9930602;28;20219;-76
2023/10/09 16:06:55;;;;;;;6.15;5.70;;;;;;;;;;9886147;28;20378;-75
2023/10/09 16:11:56;;;;;;;6.75;6.22;;;;;;;;;;9917765;28;20921;-74
2023/10/09 16:16:58;;;;;;;7.63;6.88;;;;;;;;;;9959574;28;20359;-76
2023/10/09 16:22:03;;;;;;;7.68;7.00;;;;;;;;;;9933671;28;20971;-76
2023/10/09 16:27:04;;;;;;;7.63;6.93;;;;;;;;;;9950494;28;21102;-75
2023/10/09 16:32:07;;;;;;;7.20;6.55;;;;;;;;;;10345690;28;20222;-75
2023/10/09 16:37:08;;;;;;;9.63;8.70;;;;;;;;;;10363145;28;20216;-75
2023/10/09 16:42:09;;;;;;;6.90;6.28;;;;;;;;;;10373805;28;20228;-76
2023/10/09 16:47:10;;;;;;;6.85;6.20;;;;;;;;;;10341749;28;20211;-75
2023/10/09 16:52:11;;;;;;;6.80;6.25;;;;;;;;;;10371332;28;20250;-74
2023/10/09 16:57:12;;;;;;;5.88;5.47;;;;;;;;;;10360352;28;20315;-75
2023/10/09 17:02:18;;;;;;;7.22;5.50;;;;;;;;;;10367017;28;20227;-75
2023/10/09 17:07:23;;;;;;;5.30;5.00;;;;;;;;;;10348436;28;20212;-76
2023/10/09 17:12:24;;;;;;;5.45;5.07;;;;;;;;;;10363636;28;20211;-75
2023/10/09 17:17:25;;;;;;;4.95;4.57;;;;;;;;;;10353424;28;20215;-76
2023/10/09 17:22:26;;;;;;;5.60;5.00;;;;;;;;;;10336684;28;20223;-73
2023/10/09 17:27:27;;;;;;;5.03;4.72;;;;;;;;;;10335082;28;20760;-75
2023/10/09 17:32:28;;;;;;;4.30;3.92;;;;;;;;;;10348566;28;20219;-76
2023/10/09 17:37:30;;;;;;;5.95;4.47;;;;;;;;;;10367975;28;20343;-75
2023/10/09 17:42:31;;;;;;;3.45;3.30;;;;;;;;;;10356341;28;20219;-76
2023/10/09 17:47:34;;;;;;;6.68;3.50;;;;;;;;;;10344061;28;20575;-77
2023/10/09 17:52:35;;;;;;;3.83;2.97;;;;;;;;;;10360380;28;20215;-76
2023/10/09 17:57:41;;;;;;;3.13;2.92;;;;;;;;;;10357990;28;20227;-77
2023/10/09 18:02:42;;;;;;;2.63;2.15;;;;;;;;;;10389461;28;20319;-77
2023/10/09 18:07:44;;;;;;;2.35;2.03;;;;;;;;;;10354390;28;21316;-77
2023/10/09 18:12:45;;;;;;;1.60;1.60;;;;;;;;;;10369021;28;20238;-77
2023/10/09 18:17:46;;;;;;;1.92;1.92;;;;;;;;;;10364761;28;20601;-77
2023/10/09 18:22:48;;;;;;;2.17;2.00;;;;;;;;;;10364904;28;20316;-78
2023/10/09 18:27:50;;;;;;;0.90;0.90;;;;;;;;;;10376035;28;20220;-76
2023/10/09 18:32:51;;;;;;;1.63;1.50;;;;;;;;;;10384725;28;20207;-76
2023/10/09 18:37:58;;;;;;;1.80;1.70;;;;;;;;;;9897450;28;21227;-74
2023/10/09 18:43:00;;;;;;;2.70;1.95;;;;;;;;;;9694232;28;20231;-73
2023/10/09 18:48:03;;;;;;;2.35;1.88;;;;;;;;;;9730054;28;20725;-72
2023/10/09 18:53:04;;;;;;;3.70;2.10;;;;;;;;;;9751459;28;21147;-73
2023/10/09 18:58:09;;;;;;;2.05;1.95;;;;;;;;;;9747607;28;21210;-73
2023/10/09 19:03:10;;;;;;;1.45;1.35;;;;;;;;;;9698920;28;20316;-75
2023/10/09 19:08:12;;;;;;;4.47;0.98;;;;;;;;;;9713883;28;21298;-73
2023/10/09 19:13:13;;;;;;;0.95;0.95;;;;;;;;;;9690210;28;21390;-75
2023/10/09 19:18:15;;;;;;;1.15;0.68;;;;;;;;;;9708813;28;20678;-74
2023/10/09 19:23:16;;;;;;;0.95;0.95;;;;;;;;;;9688097;28;21076;-74
2023/10/09 19:28:17;;;;;;;1.05;1.05;;;;;;;;;;9676952;28;20886;-74
2023/10/09 19:33:18;;;;;;;1.25;1.23;;;;;;;;;;9692646;28;21467;-74
2023/10/09 19:38:19;;;;;;;2.00;1.30;;;;;;;;;;9736083;28;21245;-75
2023/10/09 19:43:21;;;;;;;2.55;1.27;;;;;;;;;;9675961;28;21017;-74
2023/10/09 19:48:22;;;;;;;1.48;1.38;;;;;;;;;;9688094;28;21680;-75
2023/10/09 19:53:24;;;;;;;4.00;1.42;;;;;;;;;;9728401;28;21095;-74
2023/10/09 19:58:25;;;;;;;1.75;1.75;;;;;;;;;;9767759;28;21038;-73
2023/10/09 20:03:27;;;;;;;2.72;1.63;;;;;;;;;;9743441;28;21588;-73
2023/10/09 20:08:28;;;;;;;2.08;1.83;;;;;;;;;;9739785;28;20832;-76
2023/10/09 20:13:30;;;;;;;2.75;1.33;;;;;;;;;;9734127;28;21154;-73
2023/10/09 20:18:31;;;;;;;1.20;1.10;;;;;;;;;;9724031;28;20856;-76
2023/10/09 20:23:33;;;;;;;3.17;1.15;;;;;;;;;;9814671;28;20214;-75
2023/10/09 20:28:37;;;;;;;1.08;1.00;;;;;;;;;;10391712;28;20206;-75
2023/10/09 20:33:39;;;;;;;2.05;1.10;;;;;;;;;;10414081;28;20284;-75
2023/10/09 20:38:40;;;;;;;1.50;1.38;;;;;;;;;;10421337;28;20221;-75
2023/10/09 20:43:41;;;;;;;1.27;1.27;;;;;;;;;;10418734;28;20219;-75
2023/10/09 20:48:45;;;;;;;1.63;1.27;;;;;;;;;;10427935;28;20226;-76
2023/10/09 20:53:46;;;;;;;1.15;1.05;;;;;;;;;;10411788;28;20225;-76
2023/10/09 20:58:47;;;;;;;1.05;1.05;;;;;;;;;;10408638;28;20223;-74
2023/10/09 21:03:51;;;;;;;1.17;1.10;;;;;;;;;;10404770;28;20211;-74
2023/10/09 21:08:53;;;;;;;1.85;1.08;;;;;;;;;;10428179;28;20217;-74
2023/10/09 21:13:56;;;;;;;3.25;1.40;;;;;;;;;;10410053;28;20206;-74
2023/10/09 21:18:57;;;;;;;2.17;1.23;;;;;;;;;;10405295;28;20222;-75
2023/10/09 21:23:58;;;;;;;4.68;1.70;;;;;;;;;;10428376;28;20221;-75
2023/10/09 21:28:59;;;;;;;2.85;1.08;;;;;;;;;;10409808;28;20221;-75
2023/10/09 21:34:01;;;;;;;4.35;1.50;;;;;;;;;;10430723;28;20265;-75
2023/10/09 21:39:02;;;;;;;2.25;1.35;;;;;;;;;;10426946;28;20322;-75
2023/10/09 21:44:03;;;;;;;1.90;1.00;;;;;;;;;;10409217;28;20210;-76
2023/10/09 21:49:07;;;;;;;1.77;1.25;;;;;;;;;;10387975;28;20222;-75
2023/10/09 21:54:08;;;;;;;1.40;1.23;;;;;;;;;;10430876;28;20211;-76
2023/10/09 21:59:12;;;;;;;1.70;1.13;;;;;;;;;;10411190;28;20222;-76
2023/10/09 22:04:12;;;;;;;3.90;0.90;;;;;;;;;;10405406;28;20839;-76
2023/10/09 22:09:14;;;;;;;0.80;0.80;;;;;;;;;;10429396;28;20250;-76
2023/10/09 22:14:15;;;;;;;1.15;0.60;;;;;;;;;;10429394;28;20250;-75
2023/10/09 22:19:22;;;;;;;3.05;0.98;;;;;;;;;;10419484;28;20313;-75
2023/10/09 22:24:23;;;;;;;3.67;0.80;;;;;;;;;;10393573;28;20215;-75
2023/10/09 22:29:27;;;;;;;0.50;0.50;;;;;;;;;;10374816;28;21044;-75
2023/10/09 22:34:30;;;;;;;0.95;0.52;;;;;;;;;;10031739;28;20222;-74
2023/10/09 22:39:36;;;;;;;1.27;0.60;;;;;;;;;;9758256;28;21879;-74
2023/10/09 22:44:38;;;;;;;2.58;0.77;;;;;;;;;;9740584;28;20227;-74
2023/10/09 22:49:52;;;;;;;1.50;0.90;;;;;;;;;;9739763;28;20397;-74
2023/10/09 22:54:54;;;;;;;0.60;0.60;;;;;;;;;;9760729;28;20223;-74
2023/10/09 23:00:00;;;;;;;0.68;0.68;;;;;;;;;;9758271;28;21541;-74
2023/10/09 23:05:04;;;;;;;2.50;0.60;;;;;;;;;;9726420;28;20227;-74
2023/10/09 23:10:14;;;;;;;1.02;0.60;;;;;;;;;;9728961;28;20220;-74
2023/10/09 23:15:35;;;;;;;3.63;0.50;;;;;;;;;;9740070;28;20236;-75
2023/10/09 23:20:48;;;;;;;1.00;0.50;;;;;;;;;;9763385;28;20222;-75
2023/10/09 23:25:49;;;;;;;3.05;0.50;;;;;;;;;;9766265;28;20356;-74
2023/10/09 23:30:52;;;;;;;0.95;0.50;;;;;;;;;;9790638;28;20222;-74
2023/10/09 23:36:06;;;;;;;0.30;0.30;;;;;;;;;;9766057;28;22377;-74
2023/10/09 23:41:10;;;;;;;0.60;0.60;;;;;;;;;;9816724;28;20226;-73
2023/10/09 23:46:11;;;;;;;0.50;0.50;;;;;;;;;;9818484;28;20248;-73
2023/10/09 23:51:17;;;;;;;3.95;0.70;;;;;;;;;;9772468;28;22348;-75
2023/10/09 23:56:42;;;;;;;4.38;0.52;;;;;;;;;;9797164;28;20214;-74
